x

Smith Island, Wa (sisw1) Weather Station

11:00pm - Mon 27th Apr 2015 All times are PDT. -7 hours from GMT.

  • Wind
    3mph, 5mph gusts
  • 空気 Temp 51°f
  • Sea Pressure 1012.7mb
  • Smith Island, Wa
  • Smith Island, Wa

More Historic Weather Station data

Upgrade to MSW Pro to gain access to the past 30 days of data for over 8000 Wavebouys and Weather Stations around the globe.

Join Pro

Comparision Forecast

View Surf forecast
   
Mon 04/27 11:00pm 3 5 mph 1012.7mb 51f
10:00pm 5
mph
1013.2mb 53f
9:00pm 5 6 mph 1013.7mb 53f
8:00pm 6
mph
1014.4mb 53f
7:00pm 1 2 mph 1015.2mb 59f
6:00pm 9 11 mph 1016.4mb 58f
5:00pm 18 21 mph 1017.1mb 59f
4:00pm 18
mph
1018.7mb 59f
3:00pm 16 17 mph 1020.2mb 58f
2:00pm 14
mph
1021.2mb 60f
1:00pm 5 6 mph 1021.9mb 62f
12:00pm 10 11 mph 1022.8mb 58f
11:00am 11 13 mph 1023.4mb 54f
10:00am 13 14 mph 1023.8mb 53f
9:00am 14 15 mph 1024.1mb 53f
8:00am 17 20 mph 1023.6mb 52f
7:00am 16 17 mph 1023.4mb 52f
6:00am 16 17 mph 1023.3mb 52f
5:00am 16 17 mph 1023.5mb 52f
4:00am 18 21 mph 1023.4mb 52f
3:00am 21 23 mph 1023.3mb 52f
2:00am 20 22 mph 1023.4mb 52f
1:00am 16 17 mph 1023.5mb 52f
12:00am 16 18 mph 1023.5mb 51f
Sun 04/26 11:00pm 16 17 mph 1023.3mb 51f
10:00pm 14 15 mph 1023mb 52f
9:00pm 21 22 mph 1022.4mb 53f
8:00pm 18 20 mph 1021.8mb 53f
7:00pm 18 21 mph 1021.8mb 54f
6:00pm 17 20 mph 1022.1mb 55f
5:00pm 18 21 mph 1022.1mb 55f
4:00pm 21 23 mph 1022.2mb 56f
3:00pm 18 22 mph 1022.4mb 57f
2:00pm 22 24 mph 1022.4mb 56f
1:00pm 20 22 mph 1022.4mb 54f
12:00pm 16 21 mph 1022.6mb 53f
11:00am 14 16 mph 1022.1mb 51f
10:00am 14 17 mph 1022.1mb 48f
9:00am 15 16 mph 1021.5mb 47f
8:00am 18 21 mph 1020.9mb 46f
7:00am 17 18 mph 1020.7mb 45f
6:00am 13 16 mph 1020.3mb 44f
5:00am 11 14 mph 1020mb 45f
4:00am 11 13 mph 1019.5mb 45f
3:00am 9
mph
1019.3mb 46f
2:00am 6
mph
1019.4mb 46f
1:00am 5 6 mph 1019mb 47f
12:00am 5 6 mph 1018.7mb 48f
Sat 04/25 11:00pm 3 5 mph 1018.6mb 48f
10:00pm 3 5 mph 1018.3mb 48f
9:00pm 6
mph
1018mb 48f
8:00pm 7
mph
1017.6mb 48f
7:00pm 6
mph
1017.4mb 50f
6:00pm 5 7 mph 1017.1mb 50f
5:00pm 3 5 mph 1016.8mb 51f
4:00pm 2 3 mph 1016.8mb 50f
3:00pm 5 6 mph 1016.5mb 50f
2:00pm 6 7 mph 1016.3mb 49f
1:00pm 5 7 mph 1016.2mb 49f
12:00pm 9 10 mph 1015.8mb 47f
11:00am 3 6 mph 1015.6mb 46f
10:00am  -  2 mph 1015.1mb 46f
9:00am 3 5 mph 1014.7mb 44f
8:00am 9 10 mph 1014.1mb 44f
7:00am 11 15 mph 1013.3mb 45f
6:00am 8 9 mph 1013mb 45f
5:00am 13 14 mph 1012.6mb 45f
4:00am 7
mph
1012.6mb 45f
3:00am 2
mph
1012.3mb 46f
2:00am 7 9 mph 1012.2mb 46f
1:00am 9 14 mph 1011.9mb 47f
12:00am 16 20 mph 1011.4mb 47f
Fri 04/24 11:00pm 16 18 mph 1011.4mb 47f
10:00pm 14 17 mph 1011mb 48f
9:00pm 21 24 mph 1010.6mb 47f
8:00pm 10 14 mph 1010.5mb 48f
7:00pm 5 7 mph 1010mb 49f
6:00pm 8 9 mph 1009.6mb 50f
5:00pm 6 7 mph 1009.5mb 51f
4:00pm 10 13 mph 1009.5mb 51f
3:00pm 6 8 mph 1009mb 53f
2:00pm 13 14 mph 1008.4mb 56f
1:00pm 10 13 mph 1008.3mb 55f
12:00pm 15 16 mph 1008.2mb 54f
11:00am 18 20 mph 1007.8mb 51f
10:00am 17 18 mph 1007.7mb 47f
9:00am 18 20 mph 1007.6mb 47f
8:00am 17 18 mph 1007.5mb 47f